createdAt,value
2018-02-08T00:00:11.921Z,24.80
2018-02-08T00:02:42.557Z,24.80
2018-02-08T00:05:13.549Z,24.80
2018-02-08T00:07:44.105Z,24.80
2018-02-08T00:10:14.586Z,24.80
2018-02-08T00:12:45.037Z,24.90
2018-02-08T00:15:15.538Z,24.90
2018-02-08T00:17:47.270Z,24.90
2018-02-08T00:20:18.062Z,25.00
2018-02-08T00:22:49.371Z,25.20
2018-02-08T00:25:20.646Z,25.20
2018-02-08T00:27:51.119Z,25.20
2018-02-08T00:30:22.144Z,25.40
2018-02-08T00:32:52.778Z,25.40
2018-02-08T00:35:24.058Z,25.50
2018-02-08T00:37:54.581Z,25.50
2018-02-08T00:40:25.024Z,25.50
2018-02-08T00:42:56.716Z,25.60
2018-02-08T00:45:28.033Z,25.80
2018-02-08T00:47:58.866Z,25.80
2018-02-08T00:50:29.343Z,25.90
2018-02-08T00:52:59.873Z,25.90
2018-02-08T00:55:30.346Z,26.00
2018-02-08T00:58:00.811Z,26.10
2018-02-08T01:00:32.437Z,26.20
2018-02-08T01:03:02.946Z,26.20
2018-02-08T01:05:33.687Z,26.20
2018-02-08T01:08:04.170Z,26.30
2018-02-08T01:10:35.452Z,26.30
2018-02-08T01:13:05.958Z,26.40
2018-02-08T01:15:37.333Z,26.50
2018-02-08T01:18:08.201Z,26.50
2018-02-08T01:20:38.713Z,26.60
2018-02-08T01:23:09.201Z,26.60
2018-02-08T01:25:39.687Z,26.60
2018-02-08T01:28:10.110Z,26.70
2018-02-08T01:30:41.010Z,26.70
2018-02-08T01:33:11.491Z,26.80
2018-02-08T01:35:43.045Z,26.80
2018-02-08T01:38:14.932Z,26.80
2018-02-08T01:40:45.377Z,26.80
2018-02-08T01:43:15.866Z,26.80
2018-02-08T01:45:47.142Z,26.90
2018-02-08T01:48:17.889Z,26.90
2018-02-08T01:50:48.412Z,26.90
2018-02-08T01:53:19.460Z,27.00
2018-02-08T01:55:49.948Z,27.00
2018-02-08T01:58:21.222Z,27.10
2018-02-08T02:00:51.746Z,27.10
2018-02-08T02:03:22.177Z,27.20
2018-02-08T02:05:53.737Z,27.20
2018-02-08T02:08:24.125Z,27.20
2018-02-08T02:10:55.509Z,27.50
2018-02-08T02:13:26.006Z,27.40
2018-02-08T02:15:56.546Z,27.50
2018-02-08T02:18:27.305Z,27.60
2018-02-08T02:20:57.922Z,27.60
2018-02-08T02:23:29.386Z,27.60
2018-02-08T02:25:59.927Z,27.70
2018-02-08T02:28:30.406Z,27.80
2018-02-08T02:31:01.665Z,27.90
2018-02-08T02:33:32.167Z,27.90
2018-02-08T02:36:04.601Z,28.10
2018-02-08T02:38:34.990Z,28.10
2018-02-08T02:41:05.377Z,28.10
2018-02-08T02:43:35.847Z,28.20
2018-02-08T02:46:06.293Z,28.30
2018-02-08T02:48:37.843Z,28.30
2018-02-08T02:51:08.281Z,28.30
2018-02-08T02:53:41.428Z,28.20
2018-02-08T02:56:11.909Z,28.20
2018-02-08T02:58:42.529Z,28.30
2018-02-08T03:01:13.164Z,28.30
2018-02-08T03:03:43.658Z,28.40
2018-02-08T03:06:14.581Z,28.40
2018-02-08T03:08:45.921Z,28.50
2018-02-08T03:11:17.214Z,28.50
2018-02-08T03:13:47.783Z,28.50
2018-02-08T03:16:18.301Z,28.50
2018-02-08T03:18:49.947Z,28.60
2018-02-08T03:21:20.405Z,28.60
2018-02-08T03:23:52.782Z,28.70
2018-02-08T03:26:24.052Z,28.70
2018-02-08T03:29:01.309Z,28.70
2018-02-08T03:31:34.271Z,28.70
2018-02-08T03:34:04.758Z,28.70
2018-02-08T03:36:35.294Z,28.80
2018-02-08T03:39:06.038Z,28.90
2018-02-08T03:41:36.517Z,28.90
2018-02-08T03:44:07.803Z,29.10
2018-02-08T03:46:38.302Z,29.10
2018-02-08T03:49:09.960Z,29.10
2018-02-08T03:51:40.490Z,29.10
2018-02-08T03:54:11.585Z,29.20
2018-02-08T03:56:42.057Z,29.20
2018-02-08T03:59:12.642Z,29.20
2018-02-08T04:01:43.162Z,29.30
2018-02-08T04:04:13.678Z,29.40
2018-02-08T04:06:44.646Z,29.40
2018-02-08T04:09:15.041Z,29.50
2018-02-08T04:11:45.601Z,28.80
2018-02-08T04:14:16.079Z,29.60
2018-02-08T04:16:46.752Z,29.70
2018-02-08T04:19:17.741Z,29.70
2018-02-08T04:21:48.278Z,29.70
2018-02-08T04:24:19.682Z,29.80
2018-02-08T04:26:50.189Z,29.80
2018-02-08T04:29:20.660Z,29.90
2018-02-08T04:31:52.875Z,30.00
2018-02-08T04:34:23.379Z,30.00
2018-02-08T04:36:53.956Z,30.00
2018-02-08T04:39:34.966Z,30.10
2018-02-08T04:42:16.794Z,30.10
2018-02-08T04:44:58.013Z,30.10
2018-02-08T04:48:00.726Z,30.10
2018-02-08T04:50:33.070Z,30.30
2018-02-08T04:53:03.439Z,30.30
2018-02-08T04:55:34.740Z,30.30
2018-02-08T04:58:05.154Z,30.40
2018-02-08T05:00:36.545Z,30.50
2018-02-08T05:03:08.193Z,30.50
2018-02-08T05:05:39.381Z,30.60
2018-02-08T05:08:10.398Z,30.60
2018-02-08T05:10:41.609Z,30.70
2018-02-08T05:13:12.745Z,30.80
2018-02-08T05:15:43.653Z,30.80
2018-02-08T05:18:14.069Z,30.80
2018-02-08T05:20:45.549Z,30.80
2018-02-08T05:23:16.101Z,30.80
2018-02-08T05:25:47.501Z,30.70
2018-02-08T05:28:17.854Z,30.70
2018-02-08T05:30:48.271Z,30.60
2018-02-08T05:33:19.204Z,30.60
2018-02-08T05:35:50.258Z,30.70
2018-02-08T05:38:20.630Z,30.80
2018-02-08T05:40:51.027Z,30.90
2018-02-08T05:43:23.170Z,31.00
2018-02-08T05:45:54.600Z,30.90
2018-02-08T05:48:26.593Z,31.00
2018-02-08T05:50:59.598Z,31.10
2018-02-08T05:53:31.902Z,31.20
2018-02-08T05:56:02.895Z,31.20
2018-02-08T05:58:33.335Z,31.20
2018-02-08T06:01:04.479Z,31.20
2018-02-08T06:03:36.131Z,31.30
2018-02-08T06:06:07.301Z,31.30
2018-02-08T06:08:37.674Z,31.20
2018-02-08T06:11:08.050Z,31.30
2018-02-08T06:13:38.466Z,31.30
2018-02-08T06:16:10.097Z,31.30
2018-02-08T06:18:40.455Z,31.30
2018-02-08T06:21:11.133Z,31.30
2018-02-08T06:23:41.548Z,31.20
2018-02-08T06:26:12.001Z,31.30
2018-02-08T06:28:42.420Z,31.30
2018-02-08T06:31:12.802Z,31.30
2018-02-08T06:33:44.530Z,31.40
2018-02-08T06:36:15.629Z,31.50
2018-02-08T06:38:46.021Z,31.50
2018-02-08T06:41:16.432Z,31.50
2018-02-08T06:43:47.582Z,31.50
2018-02-08T06:46:17.991Z,31.40
2018-02-08T06:48:49.162Z,31.60
2018-02-08T06:51:20.001Z,31.50
2018-02-08T06:53:50.398Z,31.50
2018-02-08T06:56:21.559Z,31.50
2018-02-08T06:58:52.027Z,31.50
2018-02-08T07:01:22.444Z,31.60
2018-02-08T07:03:53.922Z,31.60
2018-02-08T07:06:24.439Z,31.60
2018-02-08T07:08:55.130Z,31.60
2018-02-08T07:11:25.654Z,31.50
2018-02-08T07:13:56.145Z,31.50
2018-02-08T07:16:26.591Z,31.50
2018-02-08T07:18:57.782Z,31.60
2018-02-08T07:21:29.626Z,31.60
2018-02-08T07:24:00.085Z,31.60
2018-02-08T07:26:30.558Z,31.50
2018-02-08T07:29:01.780Z,31.60
2018-02-08T07:31:32.222Z,31.50
2018-02-08T07:34:04.437Z,31.60
2018-02-08T07:36:34.890Z,31.60
2018-02-08T07:39:06.279Z,31.60
2018-02-08T07:41:37.455Z,31.60
2018-02-08T07:44:12.185Z,31.70
2018-02-08T07:46:43.356Z,31.60
2018-02-08T07:49:13.818Z,31.60
2018-02-08T07:51:45.826Z,31.60
2018-02-08T07:54:16.263Z,31.60
2018-02-08T07:56:46.787Z,31.60
2018-02-08T07:59:17.198Z,31.60
2018-02-08T08:01:47.625Z,31.60
2018-02-08T08:04:18.632Z,31.60
2018-02-08T08:06:49.193Z,31.60
2018-02-08T08:09:20.182Z,31.60
2018-02-08T08:11:51.473Z,31.60
2018-02-08T08:14:22.008Z,31.60
2018-02-08T08:16:53.938Z,31.60
2018-02-08T08:19:24.637Z,31.60
2018-02-08T08:21:55.258Z,31.60
2018-02-08T08:24:25.826Z,31.60
2018-02-08T08:26:57.097Z,31.60
2018-02-08T08:29:27.593Z,31.60
2018-02-08T08:31:58.969Z,31.50
2018-02-08T08:34:30.016Z,31.50
2018-02-08T08:37:00.481Z,31.50
2018-02-08T08:39:31.382Z,31.50
2018-02-08T08:42:01.850Z,31.40
2018-02-08T08:44:33.032Z,31.40
2018-02-08T08:47:03.477Z,31.50
2018-02-08T08:49:33.993Z,31.50
2018-02-08T08:52:05.519Z,31.50
2018-02-08T08:54:36.805Z,31.40
2018-02-08T08:57:07.270Z,31.40
2018-02-08T08:59:37.825Z,31.40
2018-02-08T09:02:09.103Z,31.40
2018-02-08T09:04:39.638Z,31.30
2018-02-08T09:07:10.169Z,31.30
2018-02-08T09:09:40.637Z,31.30
2018-02-08T09:12:11.482Z,31.20
2018-02-08T09:14:41.980Z,31.20
2018-02-08T09:17:12.545Z,31.10
2018-02-08T09:19:43.786Z,31.10
2018-02-08T09:22:15.838Z,31.10
2018-02-08T09:24:46.374Z,31.10
2018-02-08T09:27:17.900Z,31.10
2018-02-08T09:29:48.424Z,31.10
2018-02-08T09:32:18.951Z,31.10
2018-02-08T09:34:50.150Z,31.10
2018-02-08T09:37:21.466Z,31.10
2018-02-08T09:39:53.018Z,31.10
2018-02-08T09:42:23.471Z,31.00
2018-02-08T09:44:54.763Z,31.00
2018-02-08T09:47:25.290Z,31.00
2018-02-08T09:49:57.052Z,31.00
2018-02-08T09:52:27.879Z,31.00
2018-02-08T09:54:59.606Z,31.00
2018-02-08T09:57:31.357Z,31.00
2018-02-08T10:00:02.615Z,31.00
2018-02-08T10:02:33.150Z,30.90
2018-02-08T10:05:04.249Z,31.00
2018-02-08T10:07:34.741Z,30.90
2018-02-08T10:10:06.530Z,30.90
2018-02-08T10:12:37.078Z,30.90
2018-02-08T10:15:07.520Z,30.80
2018-02-08T10:17:39.801Z,30.80
2018-02-08T10:20:11.194Z,30.80
2018-02-08T10:22:42.658Z,30.80
2018-02-08T10:25:13.126Z,30.70
2018-02-08T10:27:44.753Z,30.60
2018-02-08T10:30:15.972Z,30.60
2018-02-08T10:32:46.485Z,30.60
2018-02-08T10:35:16.970Z,30.50
2018-02-08T10:37:49.176Z,29.30
2018-02-08T10:40:20.160Z,30.40
2018-02-08T10:42:50.712Z,30.40
2018-02-08T10:45:22.009Z,30.30
2018-02-08T10:47:52.558Z,30.30
2018-02-08T10:50:24.217Z,30.30
2018-02-08T10:52:54.997Z,30.30
2018-02-08T10:55:26.230Z,30.20
2018-02-08T10:57:57.960Z,30.20
2018-02-08T11:00:29.038Z,30.20
2018-02-08T11:03:00.087Z,30.20
2018-02-08T11:05:31.504Z,30.10
2018-02-08T11:08:04.309Z,30.00
2018-02-08T11:10:36.056Z,30.00
2018-02-08T11:13:07.453Z,30.00
2018-02-08T11:15:38.053Z,30.00
2018-02-08T11:18:08.565Z,30.00
2018-02-08T11:20:39.739Z,29.90
2018-02-08T11:23:10.479Z,29.90
2018-02-08T11:25:40.960Z,29.90
2018-02-08T11:28:12.591Z,29.90
2018-02-08T11:30:43.089Z,29.80
2018-02-08T11:33:13.694Z,29.80
2018-02-08T11:35:44.434Z,29.80
2018-02-08T11:38:15.020Z,29.80
2018-02-08T11:40:46.093Z,29.70
2018-02-08T11:43:18.017Z,29.70
2018-02-08T11:45:49.182Z,29.70
2018-02-08T11:48:20.441Z,29.70
2018-02-08T11:50:51.701Z,29.70
2018-02-08T11:53:23.161Z,29.70
2018-02-08T11:55:53.552Z,29.70
2018-02-08T11:58:26.334Z,29.70
2018-02-08T12:00:58.124Z,29.70
2018-02-08T12:03:28.668Z,29.70
2018-02-08T12:05:59.182Z,29.70
2018-02-08T12:08:29.683Z,29.70
2018-02-08T12:11:01.585Z,29.70
2018-02-08T12:13:32.607Z,29.70
2018-02-08T12:16:03.219Z,29.70
2018-02-08T12:18:34.587Z,29.70
2018-02-08T12:21:06.649Z,29.60
2018-02-08T12:23:37.694Z,29.60
2018-02-08T12:26:08.698Z,29.50
2018-02-08T12:28:40.461Z,29.40
2018-02-08T12:31:12.922Z,29.40
2018-02-08T12:33:44.846Z,29.40
2018-02-08T12:36:15.360Z,29.40
2018-02-08T12:38:45.857Z,29.40
2018-02-08T12:41:18.578Z,29.50
2018-02-08T12:43:49.349Z,29.50
2018-02-08T12:46:21.410Z,29.50
2018-02-08T12:48:52.274Z,29.40
2018-02-08T12:53:59.078Z,29.30
2018-02-08T12:56:30.413Z,29.90
2018-02-08T12:59:02.034Z,29.30
2018-02-08T13:01:32.518Z,29.30
2018-02-08T13:04:03.015Z,29.30
2018-02-08T13:06:34.514Z,29.30
2018-02-08T13:09:06.313Z,29.30
2018-02-08T13:11:37.529Z,29.30
2018-02-08T13:14:08.261Z,29.30
2018-02-08T13:16:38.990Z,29.40
2018-02-08T13:19:10.873Z,29.40
2018-02-08T13:21:43.071Z,29.40
2018-02-08T13:24:14.590Z,29.30
2018-02-08T13:26:45.037Z,29.30
2018-02-08T13:29:16.700Z,29.30
2018-02-08T13:31:51.268Z,29.20
2018-02-08T13:34:21.864Z,29.20
2018-02-08T13:36:54.490Z,29.20
2018-02-08T13:39:25.329Z,29.20
2018-02-08T13:41:56.442Z,29.20
2018-02-08T13:44:26.939Z,29.10
2018-02-08T13:46:57.925Z,29.10
2018-02-08T13:49:29.877Z,29.00
2018-02-08T13:52:06.281Z,29.00
2018-02-08T13:54:45.287Z,29.00
2018-02-08T13:57:21.111Z,28.90
2018-02-08T14:00:05.485Z,28.90
2018-02-08T14:02:36.378Z,28.90
2018-02-08T14:05:07.812Z,28.70
2018-02-08T14:07:39.538Z,28.70
2018-02-08T14:10:10.392Z,28.70
2018-02-08T14:12:41.060Z,28.70
2018-02-08T14:15:12.629Z,28.70
2018-02-08T14:17:44.173Z,28.60
2018-02-08T14:20:15.940Z,28.60
2018-02-08T14:22:46.813Z,28.60
2018-02-08T14:25:18.762Z,28.60
2018-02-08T14:27:50.041Z,28.60
2018-02-08T14:30:21.760Z,28.60
2018-02-08T14:32:52.561Z,28.60
2018-02-08T14:35:24.567Z,28.60
2018-02-08T14:37:57.904Z,28.60
2018-02-08T14:40:28.944Z,28.70
2018-02-08T14:43:00.385Z,28.60
2018-02-08T14:45:31.409Z,27.80
2018-02-08T14:48:02.418Z,28.60
2018-02-08T14:50:34.122Z,28.50
2018-02-08T14:53:04.841Z,28.60
2018-02-08T14:55:36.655Z,28.50
2018-02-08T14:58:07.614Z,28.50
2018-02-08T15:00:38.277Z,28.50
2018-02-08T15:03:09.657Z,28.40
2018-02-08T15:05:42.221Z,28.30
2018-02-08T15:08:14.173Z,28.30
2018-02-08T15:10:46.721Z,28.30
2018-02-08T15:13:17.692Z,28.30
2018-02-08T15:15:48.434Z,28.20
2018-02-08T15:18:19.179Z,28.20
2018-02-08T15:20:51.582Z,28.10
2018-02-08T15:23:22.844Z,28.10
2018-02-08T15:25:54.554Z,28.10
2018-02-08T15:28:26.405Z,28.10
2018-02-08T15:30:57.200Z,28.10
2018-02-08T15:33:28.123Z,28.10
2018-02-08T15:35:59.105Z,28.00
2018-02-08T15:38:30.179Z,27.90
2018-02-08T15:41:01.582Z,27.80
2018-02-08T15:43:34.123Z,27.70
2018-02-08T15:46:04.936Z,27.70
2018-02-08T15:48:37.058Z,27.60
2018-02-08T15:51:09.005Z,27.60
2018-02-08T15:53:40.527Z,27.60
2018-02-08T15:56:11.455Z,27.60
2018-02-08T15:58:43.831Z,27.60
2018-02-08T16:01:15.368Z,27.60
2018-02-08T16:03:47.035Z,27.50
2018-02-08T16:06:19.862Z,27.50
2018-02-08T16:08:51.421Z,27.50
2018-02-08T16:11:22.009Z,27.50
2018-02-08T16:13:52.917Z,27.50
2018-02-08T16:16:23.757Z,27.40
2018-02-08T16:18:55.541Z,27.30
2018-02-08T16:21:26.230Z,27.30
2018-02-08T16:23:56.799Z,27.30
2018-02-08T16:26:30.339Z,27.40
2018-02-08T16:29:02.678Z,27.40
2018-02-08T16:31:34.601Z,27.30
2018-02-08T16:34:05.434Z,27.30
2018-02-08T16:36:36.179Z,27.40
2018-02-08T16:39:08.866Z,27.30
2018-02-08T16:41:40.239Z,27.30
2018-02-08T16:44:11.053Z,27.30
2018-02-08T16:46:42.382Z,27.30
2018-02-08T16:49:12.940Z,27.30
2018-02-08T16:51:45.257Z,27.30
2018-02-08T16:54:15.826Z,27.30
2018-02-08T16:56:47.738Z,27.20
2018-02-08T16:59:18.426Z,27.20
2018-02-08T17:01:49.831Z,27.20
2018-02-08T17:04:20.446Z,27.10
2018-02-08T17:06:52.046Z,27.10
2018-02-08T17:09:23.825Z,27.00
2018-02-08T17:11:55.112Z,27.00
2018-02-08T17:14:25.632Z,26.90
2018-02-08T17:16:57.192Z,27.00
2018-02-08T17:19:27.718Z,27.00
2018-02-08T17:21:59.038Z,27.00
2018-02-08T17:24:29.567Z,26.90
2018-02-08T17:27:00.486Z,26.90
2018-02-08T17:29:31.590Z,26.90
2018-02-08T17:32:02.422Z,26.90
2018-02-08T17:34:33.038Z,26.90
2018-02-08T17:37:04.538Z,26.90
2018-02-08T17:39:35.471Z,26.80
2018-02-08T17:42:06.776Z,26.80
2018-02-08T17:44:37.980Z,26.80
2018-02-08T17:47:09.291Z,26.70
2018-02-08T17:49:39.773Z,26.70
2018-02-08T17:52:10.282Z,26.70
2018-02-08T17:54:41.575Z,26.70
2018-02-08T17:57:12.272Z,26.70
2018-02-08T17:59:43.565Z,26.70
2018-02-08T18:02:14.085Z,26.70
2018-02-08T18:04:44.673Z,26.70
2018-02-08T18:07:15.910Z,26.60
2018-02-08T18:09:47.728Z,26.50
2018-02-08T18:12:18.206Z,26.50
2018-02-08T18:14:50.670Z,26.40
2018-02-08T18:17:22.009Z,26.40
2018-02-08T18:19:53.363Z,26.40
2018-02-08T18:22:24.625Z,26.30
2018-02-08T18:24:56.198Z,26.30
2018-02-08T18:27:28.751Z,26.40
2018-02-08T18:30:00.045Z,26.30
2018-02-08T18:32:30.540Z,26.30
2018-02-08T18:35:01.070Z,26.40
2018-02-08T18:37:32.833Z,26.30
2018-02-08T18:40:04.545Z,26.30
2018-02-08T18:42:36.673Z,26.30
2018-02-08T18:45:07.746Z,26.30
2018-02-08T18:47:38.854Z,26.30
2018-02-08T18:50:09.383Z,26.30
2018-02-08T18:52:39.853Z,26.20
2018-02-08T18:55:10.365Z,26.20
2018-02-08T18:57:42.166Z,26.20
2018-02-08T19:00:12.717Z,26.20
2018-02-08T19:02:43.454Z,26.20
2018-02-08T19:05:13.979Z,26.20
2018-02-08T19:07:44.476Z,26.20
2018-02-08T19:10:16.830Z,26.10
2018-02-08T19:12:47.346Z,26.20
2018-02-08T19:15:18.853Z,26.20
2018-02-08T19:17:49.363Z,26.20
2018-02-08T19:20:20.658Z,26.20
2018-02-08T19:22:51.163Z,26.20
2018-02-08T19:25:21.658Z,26.20
2018-02-08T19:27:53.942Z,26.20
2018-02-08T19:30:24.422Z,26.20
2018-02-08T19:32:54.922Z,26.20
2018-02-08T19:35:25.437Z,26.20
2018-02-08T19:37:55.960Z,26.20
2018-02-08T19:40:26.694Z,26.20
2018-02-08T19:42:58.020Z,26.30
2018-02-08T19:45:30.456Z,26.30
2018-02-08T19:48:00.956Z,26.30
2018-02-08T19:50:31.813Z,26.30
2018-02-08T19:53:03.323Z,26.30
2018-02-08T19:55:34.537Z,26.20
2018-02-08T19:58:05.387Z,26.20
2018-02-08T20:00:36.641Z,26.20
2018-02-08T20:03:08.208Z,26.20
2018-02-08T20:05:38.706Z,26.20
2018-02-08T20:08:09.230Z,26.20
2018-02-08T20:10:40.479Z,26.20
2018-02-08T20:13:10.996Z,26.20
2018-02-08T20:15:41.654Z,26.10
2018-02-08T20:18:12.813Z,26.10
2018-02-08T20:20:43.956Z,26.10
2018-02-08T20:23:14.319Z,26.00
2018-02-08T20:25:45.027Z,26.00
2018-02-08T20:28:15.617Z,26.00
2018-02-08T20:30:51.012Z,25.90
2018-02-08T20:33:21.429Z,25.90
2018-02-08T20:35:51.910Z,25.80
2018-02-08T20:38:22.293Z,25.80
2018-02-08T20:40:52.733Z,25.80
2018-02-08T20:43:28.265Z,25.70
2018-02-08T20:46:00.040Z,25.70
2018-02-08T20:48:31.646Z,25.70
2018-02-08T20:51:03.125Z,25.70
2018-02-08T20:53:33.650Z,25.60
2018-02-08T20:56:04.053Z,25.70
2018-02-08T20:58:36.961Z,25.60
2018-02-08T21:01:07.461Z,25.60
2018-02-08T21:03:38.658Z,25.60
2018-02-08T21:06:09.046Z,25.60
2018-02-08T21:08:39.478Z,25.50
2018-02-08T21:11:09.874Z,25.50
2018-02-08T21:13:41.140Z,25.50
2018-02-08T21:16:12.020Z,25.50
2018-02-08T21:18:42.411Z,25.50
2018-02-08T21:21:12.838Z,25.50
2018-02-08T21:23:43.177Z,25.50
2018-02-08T21:26:13.605Z,25.50
2018-02-08T21:28:44.946Z,25.40
2018-02-08T21:31:15.304Z,25.40
2018-02-08T21:33:46.956Z,25.40
2018-02-08T21:36:17.378Z,25.40
2018-02-08T21:38:48.588Z,25.50
2018-02-08T21:41:19.110Z,25.50
2018-02-08T21:43:49.942Z,25.40
2018-02-08T21:46:20.699Z,25.40
2018-02-08T21:48:51.149Z,25.40
2018-02-08T21:51:21.590Z,25.30
2018-02-08T21:53:52.098Z,25.20
2018-02-08T21:56:22.606Z,25.20
2018-02-08T21:58:53.956Z,25.20
2018-02-08T22:01:24.449Z,25.20
2018-02-08T22:03:56.140Z,25.20
2018-02-08T22:06:26.586Z,25.20
2018-02-08T22:08:57.060Z,25.20
2018-02-08T22:11:28.317Z,25.20
2018-02-08T22:13:59.758Z,25.20
2018-02-08T22:16:32.037Z,25.10
2018-02-08T22:19:03.935Z,25.10
2018-02-08T22:21:34.385Z,25.00
2018-02-08T22:24:05.114Z,25.00
2018-02-08T22:26:35.470Z,25.10
2018-02-08T22:29:06.666Z,25.00
2018-02-08T22:31:37.097Z,25.00
2018-02-08T22:34:08.724Z,24.90
2018-02-08T22:36:39.119Z,24.90
2018-02-08T22:39:10.308Z,25.00
2018-02-08T22:41:40.674Z,25.00
2018-02-08T22:44:11.107Z,25.00
2018-02-08T22:46:42.650Z,25.00
2018-02-08T22:49:13.057Z,25.00
2018-02-08T22:51:43.854Z,25.00
2018-02-08T22:54:14.423Z,25.00
2018-02-08T22:56:44.884Z,25.00
2018-02-08T22:59:16.108Z,24.90
2018-02-08T23:01:46.564Z,24.90
2018-02-08T23:04:18.023Z,24.90
2018-02-08T23:06:48.467Z,24.90
2018-02-08T23:09:18.889Z,24.90
2018-02-08T23:11:49.322Z,24.90
2018-02-08T23:14:19.774Z,24.90
2018-02-08T23:16:50.174Z,24.80
2018-02-08T23:19:20.569Z,24.80
2018-02-08T23:21:52.665Z,24.70
2018-02-08T23:24:23.057Z,24.60
2018-02-08T23:26:54.242Z,24.70
2018-02-08T23:29:24.738Z,24.70
2018-02-08T23:31:56.830Z,24.60
2018-02-08T23:34:27.450Z,24.60
2018-02-08T23:36:57.933Z,24.60
2018-02-08T23:39:29.212Z,24.50
2018-02-08T23:41:59.597Z,24.50
2018-02-08T23:44:30.003Z,24.50
2018-02-08T23:47:00.993Z,24.60
2018-02-08T23:49:32.205Z,24.50
2018-02-08T23:52:04.337Z,24.50
2018-02-08T23:54:34.799Z,24.50
2018-02-08T23:57:05.294Z,24.60
2018-02-08T23:59:35.765Z,24.60
